Time;durP1;ratioP1;P1;durP2;ratioP2;P2;SDS_P1;SDS_P2;PMS_P1;PMS_P2;Temp;Humidity;BMP_temperature;BMP_pressure;BME280_temperature;BME280_humidity;BME280_pressure;Samples;Min_cycle;Max_cycle;Signal;HPM_P1;HPM_P2
2022/08/12 00:43:57;;;;;;;1.40;1.30;;;;;;;26.67;44.67;102011.53;5027975;28;20494;-58
2022/08/12 00:46:31;;;;;;;1.17;1.08;;;;;;;26.67;44.78;102016.16;5028434;28;20447;-59
2022/08/12 00:48:57;;;;;;;1.73;1.30;;;;;;;26.67;44.63;102005.25;5011439;28;20490;-58
2022/08/12 00:52:04;;;;;;;1.30;1.15;;;;;;;26.67;44.63;102010.69;5010232;28;20053;-59
2022/08/12 00:54:09;;;;;;;2.60;1.42;;;;;;;26.66;44.66;102009.03;5028039;28;20504;-59
2022/08/12 00:56:35;;;;;;;1.52;1.27;;;;;;;26.66;44.50;102015.31;5027765;28;20038;-59
2022/08/12 00:59:02;;;;;;;2.00;1.30;;;;;;;26.66;44.40;102007.13;5010131;28;20048;-58
2022/08/12 01:01:29;;;;;;;2.42;1.40;;;;;;;26.66;44.49;102009.03;5027852;28;20326;-59
2022/08/12 01:12:37;;;;;;;2.05;1.40;;;;;;;26.59;44.34;101997.19;4909651;29;20095;-59
2022/08/12 01:15:03;;;;;;;1.50;1.27;;;;;;;26.65;44.25;102007.34;4909318;29;20036;-59
2022/08/12 01:17:29;;;;;;;1.40;1.10;;;;;;;26.64;44.26;102006.50;4908340;29;20530;-59
2022/08/12 01:19:55;;;;;;;1.80;1.25;;;;;;;26.64;44.29;102002.94;4909673;29;20053;-58
2022/08/12 01:23:04;;;;;;;2.35;1.85;;;;;;;26.64;44.47;102011.97;4893817;29;20104;-59
2022/08/12 01:25:33;;;;;;;2.45;1.58;;;;;;;26.63;44.31;102003.94;4894029;29;20048;-58
2022/08/12 01:28:00;;;;;;;2.97;1.65;;;;;;;26.65;44.20;102004.63;4893609;29;20040;-58
2022/08/12 01:30:27;;;;;;;1.80;1.13;;;;;;;26.63;44.14;102006.66;4893623;29;20036;-58
2022/08/12 01:32:53;;;;;;;1.45;1.25;;;;;;;26.63;44.21;102002.09;4893727;29;20081;-58
2022/08/12 01:35:20;;;;;;;3.95;1.70;;;;;;;26.63;44.42;102006.66;4893767;29;20043;-59
2022/08/12 01:38:11;;;;;;;2.35;1.30;;;;;;;26.64;44.39;102005.66;4893309;29;20028;-59
2022/08/12 01:40:38;;;;;;;2.67;1.55;;;;;;;26.64;44.69;102008.38;4891003;29;20040;-59
2022/08/12 01:43:15;;;;;;;1.98;1.27;;;;;;;26.63;44.72;102010.28;4893583;29;20037;-59
2022/08/12 01:45:46;;;;;;;2.28;1.73;;;;;;;26.63;44.72;102015.72;4947613;29;20035;-59
2022/08/12 01:48:28;;;;;;;1.85;1.30;;;;;;;26.64;44.55;102011.97;4989596;28;20063;-58
2022/08/12 01:51:25;;;;;;;1.75;1.40;;;;;;;26.63;44.42;102009.41;5027003;28;20050;-59
2022/08/12 01:54:15;;;;;;;1.97;1.30;;;;;;;26.63;44.55;102009.41;5009582;28;20231;-59
2022/08/12 01:56:49;;;;;;;1.85;1.15;;;;;;;26.62;44.55;101994.91;5026694;28;20026;-59
2022/08/12 01:59:45;;;;;;;1.23;1.10;;;;;;;26.62;44.45;102002.25;5026628;28;20030;-59
2022/08/12 02:02:15;;;;;;;1.50;1.40;;;;;;;26.61;44.57;101998.69;5012268;28;20033;-58
2022/08/12 02:11:27;;;;;;;1.83;1.23;;;;;;;26.59;44.03;101992.59;5024828;28;20037;-59
2022/08/12 02:14:05;;;;;;;1.83;1.27;;;;;;;26.59;43.64;101994.47;5046233;28;20091;-59
2022/08/12 02:16:49;;;;;;;1.98;1.52;;;;;;;26.59;43.87;101994.47;5046087;28;20523;-58
2022/08/12 02:19:33;;;;;;;1.95;1.13;;;;;;;26.58;43.62;101995.50;5028537;28;20117;-59
2022/08/12 02:22:16;;;;;;;2.00;1.52;;;;;;;26.58;43.04;101996.34;5046208;28;20029;-58
2022/08/12 02:24:43;;;;;;;2.25;1.38;;;;;;;26.57;42.53;101993.81;5046402;28;20032;-59
2022/08/12 02:27:09;;;;;;;1.85;1.10;;;;;;;26.57;42.54;101991.09;5027560;28;20114;-59
2022/08/12 02:29:35;;;;;;;1.55;1.23;;;;;;;26.57;42.29;101991.94;5027745;28;20026;-60
2022/08/12 02:32:02;;;;;;;1.63;1.38;;;;;;;26.56;42.11;101990.25;5046127;28;20033;-59
2022/08/12 02:34:28;;;;;;;2.72;1.58;;;;;;;26.55;41.86;101994.03;5045931;28;20061;-58
2022/08/12 02:36:54;;;;;;;1.88;1.45;;;;;;;26.54;41.72;101992.31;5028264;28;20486;-60
2022/08/12 02:39:23;;;;;;;2.10;1.60;;;;;;;26.55;41.77;101991.31;5045900;28;20030;-58
2022/08/12 02:41:51;;;;;;;1.92;1.20;;;;;;;26.55;41.36;101988.56;5045497;28;20029;-59
2022/08/12 02:44:16;;;;;;;2.08;1.38;;;;;;;26.54;41.38;101989.59;5027769;28;20084;-58
2022/08/12 02:46:48;;;;;;;1.73;1.40;;;;;;;26.54;41.41;101981.41;5028195;28;20029;-59
2022/08/12 02:49:40;;;;;;;1.90;1.30;;;;;;;26.55;41.24;101984.97;5028913;28;20025;-59
2022/08/12 02:52:09;;;;;;;1.60;1.30;;;;;;;26.54;41.51;101980.56;5045469;28;20443;-57
2022/08/12 02:54:35;;;;;;;2.67;1.63;;;;;;;26.53;41.41;101982.44;5028591;28;20055;-59
2022/08/12 02:57:00;;;;;;;1.98;1.70;;;;;;;26.51;41.44;101976.34;5027577;28;20029;-60
2022/08/12 02:59:26;;;;;;;1.40;1.30;;;;;;;26.53;41.16;101985.19;5045113;28;20025;-59
2022/08/12 03:01:54;;;;;;;2.75;1.58;;;;;;;26.53;41.18;101987.06;5045711;28;20482;-60
2022/08/12 03:04:37;;;;;;;1.50;1.40;;;;;;;26.52;41.22;101983.50;5045584;28;20025;-61
2022/08/12 03:07:13;;;;;;;1.77;1.58;;;;;;;26.46;41.15;101976.06;5045503;28;20021;-60
2022/08/12 03:09:45;;;;;;;1.88;1.50;;;;;;;26.50;41.05;101976.53;5028137;28;20017;-61
2022/08/12 03:12:11;;;;;;;1.85;1.60;;;;;;;26.48;41.06;101971.28;5025439;28;20022;-59
2022/08/12 03:14:41;;;;;;;2.35;1.30;;;;;;;26.50;41.24;101973.81;5025182;28;20026;-61
2022/08/12 03:17:14;;;;;;;1.98;1.45;;;;;;;26.50;41.26;101982.00;5025649;28;20029;-58
2022/08/12 03:19:42;;;;;;;3.33;1.70;;;;;;;26.49;41.07;101983.03;5025671;28;20030;-59
2022/08/12 03:22:13;;;;;;;;;;;;;;;26.48;40.91;101987.66;5025882;28;20030;-60
2022/08/12 03:24:41;;;;;;;1.95;1.50;;;;;;;26.46;41.08;101986.97;4992572;28;19981;-60
2022/08/12 03:27:09;;;;;;;2.17;1.42;;;;;;;26.46;41.04;101986.97;5025359;28;20029;-60
2022/08/12 03:29:36;;;;;;;2.08;1.80;;;;;;;26.46;40.79;101986.13;5025021;28;20036;-60
2022/08/12 03:32:03;;;;;;;1.73;1.23;;;;;;;26.43;41.06;101980.00;5025439;28;20068;-60
2022/08/12 03:34:34;;;;;;;2.05;1.40;;;;;;;26.45;40.76;101979.00;5025482;28;20022;-60
2022/08/12 03:37:01;;;;;;;1.73;1.30;;;;;;;26.37;40.93;101963.56;5025572;28;20037;-59
2022/08/12 03:39:40;;;;;;;1.60;1.45;;;;;;;26.44;40.76;101972.72;5025924;28;20026;-58
2022/08/12 03:42:24;;;;;;;;;;;;;;;26.42;40.93;101978.34;5029727;28;20053;-59
2022/08/12 04:01:50;;;;;;;1.92;1.23;;;;;;;26.38;40.77;101966.13;5029012;28;20064;-60
2022/08/12 04:04:16;;;;;;;1.70;1.38;;;;;;;26.38;40.67;101968.84;5029110;28;20029;-59
2022/08/12 04:06:45;;;;;;;1.67;1.40;;;;;;;26.39;40.69;101964.25;5011535;28;20029;-60
2022/08/12 04:09:12;;;;;;;1.30;1.20;;;;;;;26.38;40.81;101959.81;5028972;28;20093;-60
2022/08/12 04:14:25;;;;;;;2.92;1.77;;;;;;;26.38;40.88;101962.56;5048398;28;20056;-58
2022/08/12 04:16:51;;;;;;;2.95;1.85;;;;;;;26.33;40.61;101957.66;5048441;28;20026;-61
2022/08/12 04:19:18;;;;;;;2.65;2.03;;;;;;;26.36;40.67;101959.16;5030987;28;20460;-60
2022/08/12 04:21:44;;;;;;;1.90;1.45;;;;;;;26.36;40.80;101961.88;5048839;28;20025;-60
2022/08/12 04:24:09;;;;;;;2.15;1.65;;;;;;;26.34;40.74;101956.63;5048712;28;20043;-60
2022/08/12 04:26:35;;;;;;;2.70;1.55;;;;;;;26.35;40.51;101961.03;5048543;28;20033;-60
2022/08/12 04:29:00;;;;;;;1.75;1.38;;;;;;;26.35;40.76;101960.22;5048284;28;20043;-59
2022/08/12 04:31:44;;;;;;;1.48;1.20;;;;;;;26.34;40.47;101956.63;5048118;28;20071;-59
2022/08/12 04:34:10;;;;;;;1.48;1.38;;;;;;;26.33;40.51;101957.66;5048295;28;20032;-60
2022/08/12 04:36:40;;;;;;;1.30;1.20;;;;;;;26.33;40.55;101954.09;5048496;28;20040;-60
2022/08/12 04:39:07;;;;;;;2.85;1.88;;;;;;;26.33;40.59;101962.25;5048069;28;20029;-57
2022/08/12 04:41:33;;;;;;;1.70;1.50;;;;;;;26.31;40.38;101962.47;5048293;28;20053;-60
2022/08/12 04:43:59;;;;;;;2.80;1.50;;;;;;;26.31;40.46;101962.47;5047949;28;20051;-60
2022/08/12 04:46:25;;;;;;;1.98;1.60;;;;;;;26.32;40.50;101963.31;5047857;28;20025;-60
2022/08/12 04:48:51;;;;;;;1.58;1.42;;;;;;;26.30;40.55;101955.34;5047832;28;20022;-60
2022/08/12 04:51:17;;;;;;;1.67;1.48;;;;;;;26.30;40.65;101951.75;5047595;28;20095;-60
2022/08/12 04:53:42;;;;;;;2.05;1.67;;;;;;;26.29;40.45;101956.34;5048000;28;20034;-60
2022/08/12 04:56:09;;;;;;;2.33;1.80;;;;;;;26.30;40.28;101954.50;5048169;28;20071;-60
2022/08/12 04:58:35;;;;;;;1.52;1.27;;;;;;;26.26;40.69;101947.75;5050890;28;20029;-60
2022/08/12 05:01:00;;;;;;;1.65;1.45;;;;;;;26.29;40.61;101958.22;5052158;28;20026;-59
2022/08/12 05:03:26;;;;;;;1.65;1.52;;;;;;;26.25;40.79;101949.63;5052695;28;20049;-56
2022/08/12 05:05:52;;;;;;;2.00;1.40;;;;;;;26.22;40.59;101947.28;5047855;28;20490;-58
2022/08/12 05:08:18;;;;;;;1.65;1.52;;;;;;;26.29;40.33;101955.50;5047391;28;20021;-60
2022/08/12 05:10:45;;;;;;;1.70;1.35;;;;;;;26.27;40.69;101957.59;5039404;28;20033;-60
2022/08/12 05:13:14;;;;;;;1.80;1.58;;;;;;;26.27;40.30;101955.72;5027622;28;20022;-60
2022/08/12 05:15:41;;;;;;;4.30;1.80;;;;;;;26.26;40.59;101956.75;5027224;28;20026;-60
2022/08/12 05:18:07;;;;;;;2.30;1.65;;;;;;;26.27;40.69;101957.59;5027434;28;20029;-59
2022/08/12 05:20:33;;;;;;;2.42;1.73;;;;;;;26.26;40.65;101964.09;5027758;28;20033;-59
2022/08/12 05:23:13;;;;;;;2.20;1.52;;;;;;;26.27;40.54;101960.31;5010185;28;20022;-59
2022/08/12 05:25:41;;;;;;;3.85;1.50;;;;;;;26.25;40.54;101962.38;5027640;28;20024;-60
2022/08/12 05:28:06;;;;;;;2.50;1.40;;;;;;;26.25;40.78;101967.81;5027151;28;20030;-58
2022/08/12 05:30:35;;;;;;;1.92;1.50;;;;;;;26.24;40.70;101969.72;5026856;28;20494;-60
2022/08/12 05:33:06;;;;;;;;;;;;;;;26.24;40.44;101963.41;5027832;28;20041;-59
2022/08/12 05:35:38;;;;;;;1.75;1.60;;;;;;;26.23;40.61;101968.03;5027235;28;19995;-59
2022/08/12 05:40:49;;;;;;;1.63;1.48;;;;;;;26.21;40.80;101964.66;4977348;28;20069;-59
2022/08/12 05:43:15;;;;;;;1.75;1.55;;;;;;;26.21;40.63;101967.41;5009174;28;20021;-60
2022/08/12 05:45:41;;;;;;;1.80;1.33;;;;;;;26.19;40.95;101969.44;5026607;28;20022;-61
2022/08/12 05:48:06;;;;;;;1.63;1.50;;;;;;;26.21;40.95;101967.41;5026600;28;20014;-60
2022/08/12 05:50:34;;;;;;;2.00;1.58;;;;;;;26.21;40.55;101970.13;5027066;28;20387;-60
2022/08/12 05:52:59;;;;;;;2.42;1.88;;;;;;;26.21;40.63;101975.56;5026864;28;20042;-60
2022/08/12 05:55:24;;;;;;;1.60;1.50;;;;;;;26.21;40.67;101977.44;5027081;28;20041;-60
2022/08/12 05:57:54;;;;;;;5.03;2.03;;;;;;;26.21;40.73;101977.44;5026540;28;20034;-59
2022/08/12 06:00:20;;;;;;;1.60;1.50;;;;;;;26.21;40.89;101981.03;5026417;28;20022;-60
2022/08/12 06:02:45;;;;;;;2.45;1.40;;;;;;;26.20;40.73;101978.47;5026279;28;20049;-60
2022/08/12 06:05:11;;;;;;;2.03;1.55;;;;;;;26.22;40.77;101981.88;5026651;28;20022;-60
2022/08/12 06:07:44;;;;;;;2.55;1.80;;;;;;;26.04;40.79;101950.41;5026423;28;20018;-59
2022/08/12 06:10:09;;;;;;;2.45;1.92;;;;;;;26.20;40.72;101975.75;5013299;28;20041;-59
2022/08/12 06:12:35;;;;;;;2.00;1.50;;;;;;;26.22;41.03;101979.97;5045988;28;20025;-60
2022/08/12 06:15:00;;;;;;;2.20;1.80;;;;;;;26.21;40.79;101983.75;5045716;28;20026;-60
2022/08/12 06:17:26;;;;;;;1.90;1.45;;;;;;;26.21;41.00;101988.34;5046086;28;20170;-60
2022/08/12 06:19:51;;;;;;;2.50;1.42;;;;;;;26.22;40.71;101988.16;5046265;28;20033;-59
2022/08/12 06:22:16;;;;;;;1.90;1.63;;;;;;;26.17;40.82;101974.28;5046095;28;20116;-60
2022/08/12 06:24:41;;;;;;;2.00;1.60;;;;;;;26.22;40.90;101990.03;5046299;28;20034;-60
2022/08/12 06:27:07;;;;;;;1.67;1.40;;;;;;;26.22;40.72;101995.50;5045760;28;20047;-59
2022/08/12 06:29:34;;;;;;;2.10;1.60;;;;;;;26.23;40.90;101995.28;5045440;28;20024;-59
2022/08/12 06:31:59;;;;;;;2.03;1.55;;;;;;;26.15;41.07;101981.78;5045853;28;20372;-60
2022/08/12 06:34:35;;;;;;;1.77;1.50;;;;;;;26.22;41.08;101993.63;5046021;28;20052;-60
2022/08/12 06:37:00;;;;;;;2.20;1.70;;;;;;;26.22;40.88;101987.31;5045683;28;20072;-59
2022/08/12 06:39:25;;;;;;;2.65;1.73;;;;;;;26.22;41.18;101984.59;5045775;28;20111;-55
2022/08/12 06:44:34;;;;;;;3.83;1.42;;;;;;;26.21;41.04;101991.94;5045579;28;20048;-60
2022/08/12 06:47:00;;;;;;;2.88;1.77;;;;;;;26.21;40.97;101991.94;5028047;28;20371;-60
2022/08/12 06:49:27;;;;;;;2.10;1.80;;;;;;;26.22;40.95;101987.31;5045661;28;20053;-59
2022/08/12 06:51:54;;;;;;;1.63;1.50;;;;;;;26.22;40.92;101982.72;5045366;28;20481;-60
2022/08/12 06:54:19;;;;;;;1.98;1.50;;;;;;;26.21;40.94;101978.31;5045807;28;20101;-60
2022/08/12 06:56:45;;;;;;;1.73;1.60;;;;;;;26.21;40.85;101978.31;5045367;28;20049;-60
2022/08/12 06:59:12;;;;;;;3.47;1.40;;;;;;;26.15;40.89;101968.16;5045143;28;20051;-60
2022/08/12 07:01:38;;;;;;;1.70;1.60;;;;;;;26.23;40.80;101975.38;5044991;28;20040;-60
2022/08/12 07:04:03;;;;;;;1.98;1.75;;;;;;;26.22;40.96;101974.53;5045382;28;20022;-59
2022/08/12 07:06:28;;;;;;;1.80;1.40;;;;;;;26.22;40.73;101970.97;5045405;28;20045;-60
2022/08/12 07:08:54;;;;;;;1.70;1.58;;;;;;;26.22;40.85;101970.97;5044931;28;20083;-60
2022/08/12 07:11:19;;;;;;;2.30;1.70;;;;;;;26.20;40.66;101968.41;5031805;28;20102;-60
2022/08/12 07:13:48;;;;;;;1.50;1.40;;;;;;;26.22;40.87;101971.81;5025050;28;20046;-60
2022/08/12 07:16:18;;;;;;;2.25;1.70;;;;;;;26.22;40.96;101971.81;5025168;28;20025;-60
2022/08/12 07:18:46;;;;;;;1.92;1.25;;;;;;;26.22;40.74;101965.50;5025020;28;20391;-59
2022/08/12 07:21:12;;;;;;;1.95;1.50;;;;;;;26.21;40.90;101967.41;5025801;28;20021;-60
2022/08/12 07:23:39;;;;;;;2.10;1.67;;;;;;;26.23;40.82;101967.19;5025488;28;20058;-60
2022/08/12 07:26:05;;;;;;;2.47;1.65;;;;;;;26.22;40.91;101973.69;5025452;28;20387;-60
2022/08/12 07:28:34;;;;;;;2.03;1.83;;;;;;;26.23;40.70;101969.91;5025094;28;20018;-59
2022/08/12 07:31:03;;;;;;;2.63;1.38;;;;;;;26.21;40.94;101964.66;5024869;28;20052;-60
2022/08/12 07:33:28;;;;;;;1.65;1.30;;;;;;;26.22;41.09;101973.69;5025598;28;20033;-59
2022/08/12 07:35:56;;;;;;;1.95;1.73;;;;;;;26.23;41.06;101972.66;5025452;28;20079;-60
2022/08/12 07:38:35;;;;;;;3.35;1.98;;;;;;;26.22;41.17;101973.69;5025056;28;20093;-60
2022/08/12 07:41:09;;;;;;;2.60;1.60;;;;;;;26.22;41.37;101973.69;5025505;28;20022;-59
2022/08/12 07:43:37;;;;;;;1.60;1.38;;;;;;;26.22;41.47;101973.69;5024894;28;20075;-59
2022/08/12 07:46:04;;;;;;;3.08;1.67;;;;;;;26.21;41.39;101981.03;5025014;28;20034;-61
2022/08/12 07:48:57;;;;;;;2.00;1.55;;;;;;;26.21;41.95;101970.13;5025043;28;20025;-60
2022/08/12 07:51:23;;;;;;;1.92;1.50;;;;;;;26.22;41.90;101977.25;5024961;28;20053;-59
2022/08/12 07:53:49;;;;;;;1.88;1.58;;;;;;;26.22;42.27;101982.72;5025051;28;20025;-60
2022/08/12 07:56:15;;;;;;;3.55;2.00;;;;;;;26.22;41.93;101976.41;5025316;28;20022;-60
2022/08/12 07:58:41;;;;;;;2.03;1.50;;;;;;;26.22;41.95;101970.97;5024723;28;20061;-61
2022/08/12 08:01:09;;;;;;;2.25;1.88;;;;;;;26.22;42.39;101990.03;5024708;28;20022;-60
2022/08/12 08:03:35;;;;;;;3.33;1.88;;;;;;;26.22;43.32;101984.59;5025141;28;20034;-60
2022/08/12 08:06:01;;;;;;;2.78;1.60;;;;;;;26.22;43.50;101981.88;5025078;28;20037;-61
2022/08/12 08:08:28;;;;;;;1.95;1.73;;;;;;;26.22;44.04;101981.88;5024790;28;20035;-60
2022/08/12 08:12:52;;;;;;;1.58;1.38;;;;;;;26.22;44.10;101979.13;5035211;28;20025;-60
2022/08/12 08:13:43;;;;;;;2.65;1.60;;;;;;;26.18;44.08;101976.78;5044288;28;20038;-59
2022/08/12 08:16:08;;;;;;;3.30;2.05;;;;;;;26.19;44.24;101977.63;5044475;28;20025;-60
2022/08/12 08:18:34;;;;;;;2.75;1.58;;;;;;;26.22;43.97;101979.13;5044359;28;20033;-61
2022/08/12 08:20:59;;;;;;;1.92;1.50;;;;;;;26.19;43.90;101974.91;5044824;28;20044;-61
2022/08/12 08:24:13;;;;;;;2.45;1.83;;;;;;;26.18;44.25;101979.50;5044779;28;20040;-60
2022/08/12 08:26:14;;;;;;;2.28;1.45;;;;;;;26.21;43.97;101983.75;5046236;28;20060;-60
2022/08/12 08:28:39;;;;;;;2.95;1.75;;;;;;;26.22;44.03;101982.72;5048033;28;20040;-59
2022/08/12 08:31:05;;;;;;;2.53;1.60;;;;;;;26.21;44.12;101978.31;5047908;28;20041;-59
2022/08/12 08:33:31;;;;;;;3.25;2.10;;;;;;;26.21;43.93;101974.69;5048347;28;20067;-59
2022/08/12 08:35:57;;;;;;;1.80;1.50;;;;;;;26.23;43.99;101983.56;5048270;28;20030;-60
2022/08/12 08:38:23;;;;;;;2.08;1.67;;;;;;;26.22;43.68;101974.53;5047823;28;20025;-59
2022/08/12 08:43:32;;;;;;;2.20;1.60;;;;;;;26.25;43.89;101968.69;5047802;28;20035;-60
2022/08/12 08:46:00;;;;;;;1.92;1.70;;;;;;;26.28;43.83;101970.19;5047483;28;20033;-59
2022/08/12 08:48:32;;;;;;;2.38;1.92;;;;;;;26.26;44.10;101966.81;5048098;28;20022;-60
2022/08/12 08:50:58;;;;;;;1.65;1.45;;;;;;;26.29;44.12;101969.97;5047916;28;20049;-60
2022/08/12 08:53:23;;;;;;;2.20;1.83;;;;;;;26.30;44.28;101973.56;5047912;28;20080;-60
2022/08/12 08:55:49;;;;;;;2.05;1.42;;;;;;;26.32;44.31;101968.75;5047732;28;20083;-60
2022/08/12 08:58:14;;;;;;;2.15;1.55;;;;;;;26.33;44.19;101973.16;5047832;28;20036;-61
2022/08/12 09:00:39;;;;;;;1.70;1.42;;;;;;;26.34;44.05;101972.16;5047147;28;20440;-60
2022/08/12 09:03:06;;;;;;;1.80;1.58;;;;;;;26.36;44.23;101970.06;5047777;28;20556;-61
2022/08/12 09:05:31;;;;;;;1.83;1.45;;;;;;;26.35;44.14;101961.03;5047514;28;20021;-61
2022/08/12 09:07:59;;;;;;;1.85;1.50;;;;;;;26.36;43.89;101968.19;5047515;28;20021;-59
2022/08/12 09:10:25;;;;;;;1.53;1.43;;;;;;;26.37;44.14;101972.59;5041548;28;20033;-61
2022/08/12 09:15:35;;;;;;;2.78;1.98;;;;;;;26.39;43.79;101966.97;5027320;28;20068;-60
2022/08/12 09:18:01;;;;;;;1.55;1.45;;;;;;;26.40;43.74;101971.38;5010061;28;20057;-59
2022/08/12 09:20:29;;;;;;;2.15;1.40;;;;;;;26.38;43.83;101965.28;5027717;28;20053;-59
2022/08/12 09:22:55;;;;;;;2.38;1.58;;;;;;;26.40;43.80;101969.50;5010033;28;20029;-59
2022/08/12 09:25:24;;;;;;;1.73;1.30;;;;;;;26.40;43.90;101966.75;5027696;28;20052;-60
2022/08/12 09:27:50;;;;;;;;;;;;;;;26.40;43.83;101969.50;5027400;28;20065;-58
2022/08/12 09:30:16;;;;;;;1.83;1.50;;;;;;;26.41;43.70;101968.44;5027042;28;19909;-58
2022/08/12 09:32:49;;;;;;;1.90;1.65;;;;;;;26.41;43.63;101973.06;5027547;28;20033;-58
2022/08/12 09:35:19;;;;;;;1.95;1.42;;;;;;;26.40;43.70;101974.94;5027098;28;20033;-59
2022/08/12 09:37:46;;;;;;;1.35;1.25;;;;;;;26.41;43.60;101971.16;5026024;28;20022;-59
2022/08/12 09:40:11;;;;;;;1.95;1.60;;;;;;;26.41;43.76;101975.78;5027143;28;20026;-59
2022/08/12 09:45:21;;;;;;;1.85;1.40;;;;;;;26.42;43.49;101966.56;5026806;28;20097;-60
2022/08/12 09:47:47;;;;;;;2.65;1.60;;;;;;;26.43;43.57;101962.81;5027114;28;20033;-57
2022/08/12 09:50:16;;;;;;;2.25;1.80;;;;;;;26.42;43.82;101961.97;5027070;28;20037;-58
2022/08/12 09:52:44;;;;;;;1.60;1.40;;;;;;;26.42;43.61;101956.50;5026719;28;20067;-59
2022/08/12 09:55:10;;;;;;;2.22;1.40;;;;;;;26.43;43.47;101954.63;5026973;28;20022;-58
2022/08/12 09:57:36;;;;;;;1.60;1.48;;;;;;;26.42;43.52;101951.06;5026811;28;20101;-58
2022/08/12 10:00:04;;;;;;;2.00;1.50;;;;;;;26.39;43.42;101937.81;5026565;28;20026;-59
2022/08/12 10:02:36;;;;;;;1.75;1.50;;;;;;;26.45;43.45;101949.00;5027182;28;20070;-58
2022/08/12 10:05:01;;;;;;;1.92;1.70;;;;;;;26.45;43.59;101943.56;5026613;28;20033;-58
2022/08/12 10:07:29;;;;;;;1.73;1.40;;;;;;;26.46;43.52;101943.34;5026786;28;20022;-58
2022/08/12 10:09:54;;;;;;;2.27;1.80;;;;;;;26.46;43.41;101942.50;5028752;28;20018;-58
2022/08/12 10:15:04;;;;;;;1.45;1.30;;;;;;;26.46;43.17;101937.88;5046144;28;20091;-59
2022/08/12 10:17:29;;;;;;;1.77;1.50;;;;;;;26.45;43.56;101935.38;5046346;28;20025;-60
2022/08/12 10:19:54;;;;;;;1.75;1.30;;;;;;;26.48;43.33;101937.72;5046294;28;20522;-59
2022/08/12 10:22:20;;;;;;;1.75;1.50;;;;;;;26.47;43.57;101927.84;5046249;28;20458;-59
2022/08/12 10:29:35;;;;;;;1.92;1.50;;;;;;;26.48;43.22;101929.53;5046202;28;20162;-59
2022/08/12 10:30:14;;;;;;;1.77;1.50;;;;;;;26.49;43.02;101914.84;5045641;28;20027;-59
2022/08/12 10:32:39;;;;;;;1.60;1.50;;;;;;;26.49;43.09;101912.97;5046285;28;20045;-59
2022/08/12 10:35:05;;;;;;;1.50;1.20;;;;;;;26.49;43.38;101902.06;5045876;28;20075;-59
2022/08/12 10:37:30;;;;;;;2.00;1.75;;;;;;;26.50;43.12;101913.81;5045796;28;20021;-59
2022/08/12 10:39:56;;;;;;;1.48;1.30;;;;;;;26.51;43.48;101901.88;5045844;28;20039;-59
2022/08/12 10:45:06;;;;;;;2.40;1.50;;;;;;;26.50;43.06;101894.72;5045626;28;20036;-59
2022/08/12 10:47:33;;;;;;;1.77;1.52;;;;;;;26.48;43.11;101891.34;5046019;28;20021;-59
2022/08/12 10:49:59;;;;;;;1.80;1.42;;;;;;;26.53;43.18;101894.34;5045362;28;20149;-59
2022/08/12 10:52:25;;;;;;;1.80;1.33;;;;;;;26.52;43.09;101885.31;5045379;28;20054;-59
2022/08/12 10:54:51;;;;;;;1.95;1.55;;;;;;;26.55;43.06;101897.69;5045762;28;20033;-59
2022/08/12 10:57:17;;;;;;;2.03;1.60;;;;;;;26.54;42.96;101888.66;5045144;28;20105;-60
2022/08/12 10:59:43;;;;;;;2.10;1.58;;;;;;;26.50;42.92;101875.63;5045393;28;20429;-60
2022/08/12 11:02:12;;;;;;;2.08;1.58;;;;;;;26.56;43.05;101877.59;5045407;28;20033;-59
2022/08/12 11:04:39;;;;;;;2.53;1.95;;;;;;;26.57;42.98;101873.81;5045611;28;20036;-59
2022/08/12 11:07:05;;;;;;;1.63;1.52;;;;;;;26.58;43.04;101873.59;5046390;28;20085;-58
2022/08/12 11:09:30;;;;;;;1.50;1.40;;;;;;;26.59;43.02;101874.44;5046939;28;20025;-58
2022/08/12 11:12:01;;;;;;;1.95;1.50;;;;;;;26.59;42.91;101864.41;5028068;28;20040;-58
2022/08/12 11:14:32;;;;;;;2.55;1.48;;;;;;;26.58;43.05;101857.25;5026595;28;20030;-59
2022/08/12 11:17:06;;;;;;;1.48;1.38;;;;;;;26.61;42.96;101862.31;5008345;28;20493;-58
2022/08/12 11:19:35;;;;;;;1.70;1.60;;;;;;;26.62;42.97;101854.97;5025457;28;20034;-58
2022/08/12 11:22:01;;;;;;;2.10;1.48;;;;;;;26.63;42.73;101856.63;5025560;28;20048;-58
2022/08/12 11:24:27;;;;;;;2.95;1.80;;;;;;;26.62;42.82;101855.81;5025551;28;20486;-58
2022/08/12 11:26:53;;;;;;;2.00;1.70;;;;;;;26.62;43.02;101852.22;5025326;28;20029;-58
2022/08/12 11:29:20;;;;;;;2.28;1.63;;;;;;;26.60;42.84;101847.00;5025779;28;20026;-58
2022/08/12 11:31:46;;;;;;;1.85;1.50;;;;;;;26.61;42.78;101835.03;5025062;28;20025;-57
2022/08/12 11:34:11;;;;;;;2.17;1.60;;;;;;;26.66;42.87;101846.19;5025608;28;20100;-59
2022/08/12 11:36:37;;;;;;;1.67;1.42;;;;;;;26.66;42.70;101840.72;5025409;28;20202;-59
2022/08/12 11:39:03;;;;;;;2.28;1.67;;;;;;;26.68;43.01;101846.00;5025195;28;20030;-59
2022/08/12 11:41:28;;;;;;;1.85;1.65;;;;;;;26.69;42.83;101850.41;5025425;28;20149;-59
2022/08/12 11:43:54;;;;;;;1.75;1.50;;;;;;;26.69;42.86;101842.22;5025082;28;20026;-59
2022/08/12 11:46:19;;;;;;;1.80;1.30;;;;;;;26.69;42.91;101835.94;5024843;28;20033;-59
2022/08/12 11:48:44;;;;;;;2.28;1.58;;;;;;;26.71;42.51;101831.94;5025002;28;20033;-58
2022/08/12 11:51:10;;;;;;;2.22;1.88;;;;;;;26.72;42.62;101833.66;5025059;28;20054;-59
2022/08/12 11:53:35;;;;;;;1.92;1.67;;;;;;;26.72;42.90;101833.66;5025173;28;20038;-58
2022/08/12 11:56:03;;;;;;;1.58;1.48;;;;;;;26.74;42.78;101817.91;5025157;28;20054;-59
2022/08/12 11:58:28;;;;;;;2.20;2.00;;;;;;;26.73;42.54;101818.97;5024850;28;20037;-59
2022/08/12 12:00:54;;;;;;;2.80;1.30;;;;;;;26.74;42.41;101815.19;5025941;28;20026;-59
2022/08/12 12:03:19;;;;;;;2.38;1.35;;;;;;;26.77;42.58;101819.41;5029360;28;20049;-59
2022/08/12 12:05:45;;;;;;;2.20;1.70;;;;;;;26.77;42.60;101819.41;5028960;28;20033;-59
2022/08/12 12:08:21;;;;;;;2.17;1.23;;;;;;;26.74;42.44;101804.28;5028870;28;20026;-58
2022/08/12 12:10:47;;;;;;;2.00;1.60;;;;;;;26.78;42.64;101813.75;5038216;28;20033;-57
2022/08/12 12:13:13;;;;;;;2.13;1.58;;;;;;;26.79;42.70;101812.69;5048459;28;20025;-58
2022/08/12 12:15:38;;;;;;;1.92;1.73;;;;;;;26.79;42.48;101815.44;5048316;28;20026;-59
2022/08/12 12:18:03;;;;;;;1.90;1.70;;;;;;;26.80;42.47;101811.66;5048194;28;20041;-59
2022/08/12 12:20:28;;;;;;;1.88;1.45;;;;;;;26.80;42.38;101814.38;5048686;28;20459;-59
2022/08/12 12:22:54;;;;;;;2.33;1.65;;;;;;;26.81;42.33;101807.91;5048538;28;20032;-60
2022/08/12 12:25:19;;;;;;;2.40;1.70;;;;;;;26.82;42.36;101809.59;5031093;28;20025;-59
2022/08/12 12:27:57;;;;;;;2.83;1.80;;;;;;;26.83;42.70;101813.16;5048215;28;20606;-59
2022/08/12 12:30:22;;;;;;;2.05;1.65;;;;;;;26.84;42.57;101817.56;5048087;28;20029;-59
2022/08/12 12:32:47;;;;;;;2.05;1.70;;;;;;;26.85;42.22;101805.63;5030506;28;20044;-58
2022/08/12 12:35:13;;;;;;;2.28;1.83;;;;;;;26.83;42.43;101811.25;5048185;28;20037;-58
2022/08/12 12:37:58;;;;;;;2.53;1.98;;;;;;;26.87;42.50;101806.25;5030160;28;20022;-58
2022/08/12 12:40:24;;;;;;;3.85;1.60;;;;;;;26.86;42.60;101799.94;5048093;28;20040;-58
2022/08/12 12:42:50;;;;;;;3.75;1.52;;;;;;;26.86;42.57;101793.66;5047622;28;20036;-58
2022/08/12 12:45:16;;;;;;;2.25;1.67;;;;;;;26.89;42.62;101790.53;5047648;28;20025;-59
2022/08/12 12:47:56;;;;;;;2.20;1.90;;;;;;;26.89;42.31;101790.53;5047923;28;20073;-59
2022/08/12 12:50:22;;;;;;;2.10;1.67;;;;;;;26.90;42.32;101794.94;5047933;28;20093;-58
2022/08/12 12:52:47;;;;;;;2.58;1.60;;;;;;;26.87;42.59;101790.72;5047678;28;20033;-58
2022/08/12 12:55:14;;;;;;;2.22;1.40;;;;;;;26.91;42.64;101791.16;5048163;28;20082;-59
2022/08/12 12:57:41;;;;;;;3.13;1.75;;;;;;;26.91;42.51;101789.28;5047512;28;20022;-59
2022/08/12 13:00:19;;;;;;;1.85;1.50;;;;;;;26.85;42.43;101767.41;5047161;28;20113;-57
2022/08/12 13:02:51;;;;;;;2.15;1.50;;;;;;;26.94;42.65;101773.56;5047837;28;20471;-59
2022/08/12 13:05:28;;;;;;;1.60;1.50;;;;;;;26.95;42.50;101773.34;5047600;28;20093;-59
2022/08/12 13:08:17;;;;;;;4.00;1.73;;;;;;;26.96;42.44;101771.44;5029787;28;20489;-59
2022/08/12 13:10:43;;;;;;;2.40;1.60;;;;;;;26.96;42.41;101785.09;5039156;28;20045;-59
2022/08/12 13:13:08;;;;;;;3.20;1.60;;;;;;;26.97;42.56;101775.84;5027321;28;20026;-59